WBGGWBGR

Guest
Details From WBGG - Kuching Intl
To WBGR - Miri
Flight Number -
Tags generated
Created
Modified
Stats Distance 277 nm / 513 km
Max Altitude 27,500 ft / 8,382 m
Waypoints 4
Social Downloads 5
Likes 0
Share VATSIM

Download

Looking for another format? Having issues loading an existing format? Contact us
Advertisement - Login to hide

Notes

Basic altitude profile: - Ascent Rate: 2500ft/min - Ascent Speed: 250kts - Cruise Altitude: 35000ft - Cruise Speed: 420kts - Descent Rate: 1500ft/min - Descent Speed: 250kts Options: - Use NATs: yes - Use PACOTS: yes - Use low airways: yes - Use high airways: yes

Route

WBGG PILAX G580 SARVO WBGR

ID Type Via Altitude Latitude Longitude Leg Dist Tot Dist Heading (true) Name
O WBGG APT - 0 ft / 0 m 1.48470˚ 110.34693˚ - 0 nm - Kuching Intl
PILAX FIX - 27,500 ft / 8,382 m 2.31889˚ 111.38528˚ 79 nm 79 nm 51° / 51° -
SARVO FIX G580 (AWY-HI) 17,600 ft / 5,364 m 3.44167˚ 112.83611˚ 110 nm 190 nm 52° / 52° -
O WBGR APT - 0 ft / 0 m 4.32207˚ 113.98681˚ 86 nm 276 nm 52° / 53° Miri

Altitude Profile

Advertisement - Login to hide

Weather


0- 5 10 15 20 25 30 35+ Temperature / ° C

Clouds and Precipitation
Forecast for 2017-12-12 06:00 UTC. Updated 2 hours ago

Ground ~20,000 ft ~40,000 ft Winds

WBGG

Details ICAO WBGG (KCH)
Name Kuching Intl
Region Brunei and Malaysia
Timezone Asia/Kuching (UTC+8.0)
Stats Elevation 89 ft / 27 m (AMSL)
Location 1.484698° 110.346932°
Runways 1
Magnetic Variation 0.356° E

METAR

WBGG 120430Z 33007KT 280V040 9999 SCT018 BKN150 31/25 Q1011 NOSIG

Decode

TAF

Not found

Departure Runways

ID Width Length Bearing (true) Bearing (mag) Surface Threshold Offset Overrun Length
07 151 ft / 46 m 8,012 ft / 2,442 m 68.26° 67.90° Asphalt 0 ft / 0 m 0 ft / 0 m
25 151 ft / 46 m 8,012 ft / 2,442 m 248.26° 247.90° Asphalt 320 ft / 98 m 0 ft / 0 m

WBGR

Details ICAO WBGR (MYY)
Name Miri
Region Brunei and Malaysia
Timezone Asia/Kuching (UTC+8.0)
Stats Elevation 59 ft / 18 m (AMSL)
Location 4.322068° 113.986806°
Runways 1
Magnetic Variation 0.083° W

METAR

WBGR 120400Z 28005KT 200V360 9999 FEW015CB SCT016 BKN300 31/25 Q1011

Decode

TAF

Not found

Destination Runways

ID Width Length Bearing (true) Bearing (mag) Surface Threshold Offset Overrun Length
02 197 ft / 60 m 9,040 ft / 2,755 m 24.85° 24.93° Asphalt 0 ft / 0 m 200 ft / 61 m
20 197 ft / 60 m 9,040 ft / 2,755 m 204.85° 204.93° Asphalt 0 ft / 0 m 200 ft / 61 m

Approach Navaids

Runway Type Ident Frequency Range Bearing (true) Bearing (mag) Slope Elevation
02 Localiser IMR 110.10 MHz 18 nm / 33 km 25.02° 25.10° - 59 ft / 18 m (AMSL)
02 Glidescope IMR 110.10 MHz 10 nm / 19 km 24.85° 24.93° 3.00° 56 ft / 17 m (AMSL)
02 DME IMR 110.10 MHz 18 nm / 33 km - - - 59 ft / 18 m (AMSL)

Popular Alternatives